Time;durP1;ratioP1;P1;durP2;ratioP2;P2;SDS_P1;SDS_P2;PMS_P1;PMS_P2;Temp;Humidity;BMP_temperature;BMP_pressure;BME280_temperature;BME280_humidity;BME280_pressure;Samples;Min_cycle;Max_cycle;Signal;HPM_P1;HPM_P2
2023/09/02 00:01:34;;;;;;;1.53;0.80;;;17.80;99.90;;;;;;5030488;28;20474;-72
2023/09/02 00:04:02;;;;;;;2.40;1.00;;;17.80;99.90;;;;;;5058476;28;20227;-72
2023/09/02 00:06:27;;;;;;;0.70;0.70;;;17.70;99.90;;;;;;5032836;28;20231;-73
2023/09/02 00:08:53;;;;;;;1.23;0.90;;;17.60;99.90;;;;;;5048370;28;20583;-73
2023/09/02 00:11:19;;;;;;;6.00;0.90;;;17.60;99.90;;;;;;5046977;28;20297;-72
2023/09/02 00:13:44;;;;;;;0.80;0.80;;;17.50;99.90;;;;;;5021454;28;20305;-73
2023/09/02 00:16:10;;;;;;;0.60;0.60;;;17.60;99.90;;;;;;5016529;28;20216;-74
2023/09/02 00:18:36;;;;;;;0.83;0.83;;;17.60;99.90;;;;;;5064467;28;20702;-73
2023/09/02 00:21:02;;;;;;;0.87;0.87;;;17.60;99.90;;;;;;5031371;28;20338;-72
2023/09/02 00:23:27;;;;;;;1.07;1.03;;;17.60;99.90;;;;;;5016289;28;20246;-73
2023/09/02 00:25:53;;;;;;;0.80;0.60;;;17.60;99.90;;;;;;5031092;28;20563;-71
2023/09/02 00:28:19;;;;;;;2.40;0.97;;;17.60;99.90;;;;;;5017334;28;20375;-71
2023/09/02 00:30:45;;;;;;;2.00;0.90;;;17.60;99.90;;;;;;5031894;28;20228;-73
2023/09/02 00:33:10;;;;;;;2.40;1.00;;;17.50;99.90;;;;;;5045434;28;20216;-70
2023/09/02 00:35:36;;;;;;;0.90;0.90;;;17.50;99.90;;;;;;5015273;28;20220;-71
2023/09/02 00:38:02;;;;;;;0.77;0.77;;;17.40;99.90;;;;;;5029496;28;20219;-70
2023/09/02 00:40:29;;;;;;;4.23;0.83;;;17.40;99.90;;;;;;5032433;28;20606;-70
2023/09/02 00:42:56;;;;;;;0.63;0.63;;;17.30;99.90;;;;;;5032508;28;20868;-70
2023/09/02 00:45:23;;;;;;;1.43;0.60;;;17.30;99.90;;;;;;5045277;28;20585;-71
2023/09/02 00:47:53;;;;;;;0.80;0.80;;;17.30;99.90;;;;;;5047690;28;20513;-70
2023/09/02 00:50:20;;;;;;;1.50;0.90;;;17.20;99.90;;;;;;5032138;28;20468;-69
2023/09/02 00:52:47;;;;;;;1.27;0.80;;;17.20;99.90;;;;;;5033179;28;20474;-70
2023/09/02 00:55:13;;;;;;;6.80;0.93;;;17.30;99.90;;;;;;5047177;28;20939;-70
2023/09/02 00:57:40;;;;;;;0.73;0.73;;;17.20;99.90;;;;;;5032912;28;20509;-71
2023/09/02 01:00:08;;;;;;;0.87;0.87;;;17.20;99.90;;;;;;5032337;28;20549;-71
2023/09/02 01:02:35;;;;;;;0.70;0.70;;;17.10;99.90;;;;;;5045929;28;20995;-70
2023/09/02 01:05:02;;;;;;;1.23;0.97;;;17.20;99.90;;;;;;5028678;28;20557;-71
2023/09/02 01:07:29;;;;;;;0.90;0.90;;;17.20;99.90;;;;;;5045375;28;20551;-70
2023/09/02 01:09:55;;;;;;;1.87;0.93;;;17.20;99.90;;;;;;5044006;28;21097;-71
2023/09/02 01:12:22;;;;;;;0.63;0.63;;;17.30;99.90;;;;;;5064085;27;20469;-70
2023/09/02 01:14:47;;;;;;;0.87;0.83;;;17.20;99.90;;;;;;5015968;28;20470;-70
2023/09/02 01:17:13;;;;;;;0.80;0.80;;;17.10;99.90;;;;;;5034245;28;20288;-71
2023/09/02 01:19:40;;;;;;;1.10;1.00;;;17.20;99.90;;;;;;5048693;28;20800;-70
2023/09/02 01:22:25;;;;;;;5.90;1.00;;;17.20;99.90;;;;;;5028070;28;20222;-71
2023/09/02 01:25:07;;;;;;;0.77;0.77;;;17.20;99.90;;;;;;5031659;28;20470;-71
2023/09/02 01:27:53;;;;;;;1.27;0.70;;;17.20;99.90;;;;;;5031610;28;20517;-70
2023/09/02 01:30:23;;;;;;;0.87;0.87;;;17.20;99.90;;;;;;5057863;28;20478;-70
2023/09/02 01:32:54;;;;;;;0.70;0.70;;;17.20;99.90;;;;;;5044275;28;20508;-69
2023/09/02 01:35:31;;;;;;;1.60;0.80;;;17.20;99.90;;;;;;5046765;28;20565;-70
2023/09/02 01:37:59;;;;;;;1.20;1.20;;;17.20;99.90;;;;;;5044504;28;20473;-70
2023/09/02 01:40:26;;;;;;;1.10;0.87;;;17.10;99.90;;;;;;5028748;28;20528;-72
2023/09/02 01:42:56;;;;;;;0.90;0.90;;;17.10;99.90;;;;;;5048936;28;20513;-71
2023/09/02 01:45:25;;;;;;;0.67;0.67;;;17.00;99.90;;;;;;5015411;28;20494;-71
2023/09/02 01:47:52;;;;;;;1.20;1.00;;;16.80;99.90;;;;;;5030784;28;20478;-70
2023/09/02 01:50:22;;;;;;;0.90;0.90;;;16.80;99.90;;;;;;5045906;28;20466;-70
2023/09/02 01:52:48;;;;;;;0.90;0.83;;;16.90;99.90;;;;;;5031471;28;21095;-70
2023/09/02 01:55:16;;;;;;;1.00;0.80;;;17.00;99.90;;;;;;5030595;28;20470;-71
2023/09/02 01:57:42;;;;;;;4.20;0.80;;;17.00;99.90;;;;;;5032127;28;20458;-71
2023/09/02 02:00:11;;;;;;;2.50;0.90;;;17.00;99.90;;;;;;5011965;28;20458;-70
2023/09/02 02:02:39;;;;;;;0.80;0.80;;;17.00;99.90;;;;;;5031877;28;20497;-70
2023/09/02 02:05:13;;;;;;;1.30;1.00;;;17.00;99.90;;;;;;5012650;28;20453;-69
2023/09/02 02:07:42;;;;;;;2.70;1.00;;;17.00;99.90;;;;;;5033850;28;20332;-70
2023/09/02 02:10:11;;;;;;;5.10;1.50;;;16.90;99.90;;;;;;5044795;28;20465;-69
2023/09/02 02:12:41;;;;;;;1.20;1.10;;;16.70;99.90;;;;;;5031415;28;20458;-71
2023/09/02 02:15:10;;;;;;;3.00;1.30;;;16.60;99.90;;;;;;5011588;28;20527;-70
2023/09/02 02:17:38;;;;;;;1.03;1.00;;;16.70;99.90;;;;;;5030847;28;20466;-71
2023/09/02 02:20:04;;;;;;;1.57;1.33;;;16.70;99.90;;;;;;5044050;28;20454;-69
2023/09/02 02:22:30;;;;;;;0.93;0.83;;;16.60;99.90;;;;;;5030758;28;20549;-69
2023/09/02 02:24:55;;;;;;;2.20;0.90;;;16.60;99.90;;;;;;5029940;28;20458;-71
2023/09/02 02:27:22;;;;;;;2.33;1.10;;;16.60;99.90;;;;;;5029679;28;20234;-70
2023/09/02 02:29:48;;;;;;;3.47;1.30;;;16.50;99.90;;;;;;5043486;28;20489;-70
2023/09/02 02:32:13;;;;;;;1.93;1.10;;;16.60;99.90;;;;;;5014888;28;20322;-71
2023/09/02 02:34:39;;;;;;;1.10;1.00;;;16.70;99.90;;;;;;5060249;28;20228;-70
2023/09/02 02:37:05;;;;;;;3.43;1.20;;;16.70;99.90;;;;;;5030081;28;20234;-71
2023/09/02 02:39:30;;;;;;;1.17;1.00;;;16.70;99.90;;;;;;5044429;28;20739;-70
2023/09/02 02:41:57;;;;;;;1.07;0.97;;;16.70;99.90;;;;;;5044579;28;20223;-69
2023/09/02 02:44:22;;;;;;;1.33;1.23;;;16.60;99.90;;;;;;5015474;28;20470;-71
2023/09/02 02:46:48;;;;;;;1.50;1.17;;;16.60;99.90;;;;;;5042324;28;20220;-71
2023/09/02 02:49:14;;;;;;;1.30;1.20;;;16.60;99.90;;;;;;5060611;28;20219;-70
2023/09/02 02:51:39;;;;;;;1.60;1.50;;;16.60;99.90;;;;;;5044566;28;20664;-71
2023/09/02 02:54:05;;;;;;;2.57;1.20;;;16.60;99.90;;;;;;5044235;28;20243;-70
2023/09/02 02:56:31;;;;;;;1.13;1.03;;;16.70;99.90;;;;;;5045430;28;20804;-70
2023/09/02 02:58:57;;;;;;;1.83;1.20;;;16.70;99.90;;;;;;5029454;28;20804;-70
2023/09/02 03:01:23;;;;;;;1.33;0.90;;;16.60;99.90;;;;;;5030218;28;20219;-70
2023/09/02 03:03:48;;;;;;;1.03;1.00;;;16.50;99.90;;;;;;5041813;28;20216;-70
2023/09/02 03:06:21;;;;;;;4.00;0.93;;;16.50;99.90;;;;;;5025784;28;20234;-69
2023/09/02 03:08:47;;;;;;;0.80;0.80;;;16.50;99.90;;;;;;5028363;28;20223;-70
2023/09/02 03:11:14;;;;;;;1.03;1.03;;;16.60;99.90;;;;;;5030117;28;20553;-70
2023/09/02 03:13:39;;;;;;;1.50;0.90;;;16.60;99.90;;;;;;5047017;28;20596;-70
2023/09/02 03:16:12;;;;;;;1.20;1.10;;;16.60;99.90;;;;;;5043788;28;20227;-71
2023/09/02 03:18:41;;;;;;;1.43;1.20;;;16.60;99.90;;;;;;5014958;28;20493;-70
2023/09/02 03:21:07;;;;;;;1.10;1.00;;;16.60;99.90;;;;;;5030571;28;20231;-71
2023/09/02 03:23:35;;;;;;;1.17;1.07;;;16.60;99.90;;;;;;5016404;28;20551;-70
2023/09/02 03:26:12;;;;;;;1.37;1.27;;;16.60;99.90;;;;;;5045688;28;20470;-71
2023/09/02 03:28:40;;;;;;;1.37;1.00;;;16.50;99.90;;;;;;5046058;28;20461;-71
2023/09/02 03:31:10;;;;;;;1.70;1.17;;;16.50;99.90;;;;;;5033489;28;20454;-68
2023/09/02 03:33:37;;;;;;;3.60;1.10;;;16.50;99.90;;;;;;5018406;28;20304;-70
2023/09/02 03:36:04;;;;;;;0.80;0.80;;;16.50;99.90;;;;;;5031679;28;20612;-70
2023/09/02 03:38:30;;;;;;;0.90;0.90;;;16.50;99.90;;;;;;5035306;28;21085;-70
2023/09/02 03:40:58;;;;;;;1.97;1.10;;;16.50;99.90;;;;;;5028274;28;20465;-71
2023/09/02 03:43:24;;;;;;;3.13;1.33;;;16.50;99.90;;;;;;5035568;28;20458;-70
2023/09/02 03:45:52;;;;;;;5.33;1.33;;;16.50;99.90;;;;;;5017271;28;20600;-70
2023/09/02 03:48:19;;;;;;;3.73;1.77;;;16.50;99.90;;;;;;5017213;28;20991;-71
2023/09/02 03:51:16;;;;;;;1.43;1.33;;;16.50;99.90;;;;;;5033931;28;20477;-70
2023/09/02 03:53:45;;;;;;;1.70;1.60;;;16.40;99.90;;;;;;5046196;28;20570;-70
2023/09/02 03:56:12;;;;;;;1.50;1.40;;;16.40;99.90;;;;;;5016972;28;20480;-69
2023/09/02 03:58:38;;;;;;;1.07;1.00;;;16.30;99.90;;;;;;5047252;28;20458;-70
2023/09/02 04:01:04;;;;;;;1.60;1.30;;;16.30;99.90;;;;;;5049133;28;20310;-69
2023/09/02 04:03:35;;;;;;;2.07;1.27;;;16.30;99.90;;;;;;5031289;28;20473;-70
2023/09/02 04:06:01;;;;;;;1.20;1.10;;;16.30;99.90;;;;;;5046141;28;20570;-71
2023/09/02 04:08:27;;;;;;;3.17;1.73;;;16.40;99.90;;;;;;5049994;28;20473;-71
2023/09/02 04:10:54;;;;;;;1.93;1.73;;;16.40;99.90;;;;;;5032640;28;20228;-71
2023/09/02 04:13:25;;;;;;;1.60;1.50;;;16.40;99.90;;;;;;5064617;28;20220;-70
2023/09/02 04:15:56;;;;;;;1.20;1.20;;;16.40;99.90;;;;;;5047154;28;20465;-70
2023/09/02 04:18:24;;;;;;;1.83;1.60;;;16.30;99.90;;;;;;5032330;28;20461;-71
2023/09/02 04:20:49;;;;;;;1.50;1.40;;;16.30;99.90;;;;;;5048122;28;20500;-71
2023/09/02 04:23:16;;;;;;;2.10;1.50;;;16.40;99.90;;;;;;5046756;28;20461;-71
2023/09/02 04:25:53;;;;;;;2.77;1.83;;;16.40;99.90;;;;;;5030736;28;20532;-70
2023/09/02 04:28:21;;;;;;;2.20;1.83;;;16.40;99.90;;;;;;5011444;28;21155;-69
2023/09/02 04:30:47;;;;;;;1.50;1.40;;;16.40;99.90;;;;;;5014026;28;20467;-71
2023/09/02 04:33:15;;;;;;;1.43;1.33;;;16.30;99.90;;;;;;5031868;28;20949;-69
2023/09/02 04:35:45;;;;;;;1.63;1.53;;;16.30;99.90;;;;;;5049091;28;20536;-70
2023/09/02 04:38:11;;;;;;;1.00;1.00;;;16.30;99.90;;;;;;5044514;28;20458;-69
2023/09/02 04:40:42;;;;;;;2.57;1.20;;;16.40;99.90;;;;;;5029009;28;20458;-70
2023/09/02 04:43:09;;;;;;;1.97;1.50;;;16.30;99.90;;;;;;5015291;28;20471;-70
2023/09/02 04:45:36;;;;;;;3.13;1.50;;;16.30;99.90;;;;;;5045853;28;20613;-70
2023/09/02 04:48:07;;;;;;;2.30;1.40;;;16.30;99.90;;;;;;5015529;28;20563;-70
2023/09/02 04:50:37;;;;;;;1.23;1.13;;;16.30;99.90;;;;;;5048130;28;21070;-71
2023/09/02 04:53:04;;;;;;;1.90;1.33;;;16.30;99.90;;;;;;5044840;28;21220;-70
2023/09/02 04:55:38;;;;;;;1.33;1.20;;;16.30;99.90;;;;;;5044558;28;20458;-68
2023/09/02 04:58:04;;;;;;;6.20;1.27;;;16.30;99.90;;;;;;5046843;28;20458;-68
2023/09/02 05:00:30;;;;;;;1.57;1.40;;;16.30;99.90;;;;;;5030921;28;20477;-68
2023/09/02 05:02:56;;;;;;;3.03;1.33;;;16.30;99.90;;;;;;5025880;28;20223;-68
2023/09/02 05:05:23;;;;;;;1.50;1.37;;;16.30;99.90;;;;;;5048969;28;20368;-68
2023/09/02 05:07:49;;;;;;;1.73;1.57;;;16.30;99.90;;;;;;5043804;28;20473;-69
2023/09/02 05:10:16;;;;;;;2.30;1.40;;;16.30;99.90;;;;;;5029009;28;20481;-68
2023/09/02 05:12:42;;;;;;;1.60;1.50;;;16.30;99.90;;;;;;5003622;28;1168983;-69
2023/09/02 05:15:09;;;;;;;1.73;1.63;;;16.30;99.90;;;;;;5045655;28;20459;-69
2023/09/02 05:17:36;;;;;;;1.50;1.40;;;16.20;99.90;;;;;;5031121;28;20469;-68
2023/09/02 05:20:04;;;;;;;2.20;1.23;;;16.20;99.90;;;;;;5013802;28;20549;-68
2023/09/02 05:22:30;;;;;;;2.00;1.70;;;16.20;99.90;;;;;;5033337;28;20358;-68
2023/09/02 05:24:55;;;;;;;1.83;1.43;;;16.20;99.90;;;;;;5043739;28;20480;-68
2023/09/02 05:27:21;;;;;;;1.20;1.20;;;16.20;99.90;;;;;;5031974;28;20498;-68
2023/09/02 05:29:48;;;;;;;1.50;1.40;;;16.20;99.90;;;;;;5030270;28;20227;-68
2023/09/02 05:32:15;;;;;;;1.70;1.60;;;16.10;99.90;;;;;;5046571;28;20512;-68
2023/09/02 05:34:40;;;;;;;1.40;1.30;;;16.10;99.90;;;;;;5034232;28;20462;-68
2023/09/02 05:37:06;;;;;;;1.80;1.70;;;16.20;99.90;;;;;;5046268;28;21097;-68
2023/09/02 05:39:32;;;;;;;1.70;1.50;;;16.20;99.90;;;;;;5030671;28;20227;-68
2023/09/02 05:41:58;;;;;;;1.70;1.40;;;16.20;99.90;;;;;;5027710;28;20273;-68
2023/09/02 05:44:24;;;;;;;1.40;1.30;;;16.20;99.90;;;;;;5027208;28;20223;-69
2023/09/02 05:46:50;;;;;;;1.73;1.20;;;16.20;99.90;;;;;;5013254;28;20974;-68
2023/09/02 05:49:16;;;;;;;1.20;1.10;;;16.20;99.90;;;;;;5046841;28;20468;-68
2023/09/02 05:51:42;;;;;;;1.23;1.10;;;16.20;99.90;;;;;;5013575;28;20223;-68
2023/09/02 05:54:09;;;;;;;1.80;1.60;;;16.20;99.90;;;;;;5029227;28;20219;-68
2023/09/02 05:56:38;;;;;;;2.90;1.30;;;16.30;99.90;;;;;;5013703;28;20212;-69
2023/09/02 05:59:05;;;;;;;1.60;1.40;;;16.30;99.90;;;;;;5057253;28;20995;-68
2023/09/02 06:01:31;;;;;;;1.43;1.27;;;16.30;99.90;;;;;;5030442;28;20887;-68
2023/09/02 06:03:56;;;;;;;0.93;0.93;;;16.30;99.90;;;;;;5024183;28;20504;-69
2023/09/02 06:06:23;;;;;;;1.97;1.30;;;16.30;99.90;;;;;;5029651;28;21244;-69
2023/09/02 06:08:48;;;;;;;2.17;1.47;;;16.40;99.90;;;;;;5010357;28;20216;-69
2023/09/02 06:11:15;;;;;;;5.30;1.47;;;16.40;99.90;;;;;;5043945;28;20471;-68
2023/09/02 06:13:40;;;;;;;1.60;1.40;;;16.40;99.90;;;;;;5059710;28;20228;-68
2023/09/02 06:16:06;;;;;;;1.60;1.50;;;16.40;99.90;;;;;;5011273;28;20466;-68
2023/09/02 06:18:34;;;;;;;2.40;1.77;;;16.40;99.90;;;;;;5045402;28;20220;-68
2023/09/02 06:21:08;;;;;;;1.90;1.80;;;16.50;99.90;;;;;;5043627;28;20466;-68
2023/09/02 06:23:34;;;;;;;2.03;1.57;;;16.50;99.90;;;;;;5045039;28;20464;-68
2023/09/02 06:26:00;;;;;;;6.27;1.80;;;16.50;99.90;;;;;;5029288;28;20462;-68
2023/09/02 06:28:27;;;;;;;2.27;2.07;;;16.50;99.90;;;;;;5045402;28;20273;-68
2023/09/02 06:30:54;;;;;;;1.97;1.87;;;16.50;99.90;;;;;;5029162;28;20458;-68
2023/09/02 06:33:22;;;;;;;1.70;1.60;;;16.50;99.90;;;;;;5031159;28;20462;-68
2023/09/02 06:35:50;;;;;;;1.87;1.77;;;16.50;99.90;;;;;;5045506;28;20549;-68
2023/09/02 06:38:17;;;;;;;3.00;1.93;;;16.50;99.90;;;;;;5030641;28;20450;-68
2023/09/02 06:40:43;;;;;;;1.80;1.50;;;16.50;99.90;;;;;;5026578;28;20466;-68
2023/09/02 06:43:08;;;;;;;1.80;1.70;;;16.50;99.90;;;;;;5031282;28;21009;-68
2023/09/02 06:45:34;;;;;;;2.23;1.70;;;16.60;99.90;;;;;;5030677;28;20223;-69
2023/09/02 06:48:00;;;;;;;2.00;1.90;;;16.60;99.90;;;;;;5043099;28;20858;-68
2023/09/02 06:50:29;;;;;;;3.37;2.77;;;16.60;99.90;;;;;;5029142;28;20794;-68
2023/09/02 06:52:54;;;;;;;2.50;2.30;;;16.60;99.90;;;;;;5029529;28;20247;-68
2023/09/02 06:55:23;;;;;;;6.60;2.77;;;16.60;99.90;;;;;;5060470;28;20466;-69
2023/09/02 06:57:49;;;;;;;2.40;2.20;;;16.60;99.90;;;;;;5045659;28;20735;-68
2023/09/02 07:00:15;;;;;;;4.17;2.30;;;16.70;99.90;;;;;;5030362;28;20478;-69
2023/09/02 07:02:42;;;;;;;2.27;2.07;;;16.80;99.90;;;;;;5044274;28;20227;-68
2023/09/02 07:05:08;;;;;;;3.03;2.47;;;16.80;99.90;;;;;;5030711;28;20536;-68
2023/09/02 07:07:36;;;;;;;2.40;2.20;;;16.90;99.90;;;;;;5029655;28;20478;-69
2023/09/02 07:10:03;;;;;;;3.00;2.67;;;17.00;99.90;;;;;;5029323;28;20474;-69
2023/09/02 07:12:28;;;;;;;2.70;2.50;;;17.10;99.90;;;;;;5029882;28;20462;-69
2023/09/02 07:14:54;;;;;;;2.77;2.10;;;17.10;99.90;;;;;;5030597;28;20485;-69
2023/09/02 07:17:20;;;;;;;4.47;2.93;;;17.20;99.90;;;;;;5013666;28;20222;-69
2023/09/02 07:19:46;;;;;;;3.03;2.33;;;17.30;99.90;;;;;;5060839;28;20235;-69
2023/09/02 07:22:12;;;;;;;3.73;2.80;;;17.40;99.90;;;;;;5043074;28;20462;-69
2023/09/02 07:24:37;;;;;;;2.90;2.67;;;17.40;99.90;;;;;;5060135;28;20232;-68
2023/09/02 07:27:04;;;;;;;3.23;2.90;;;17.50;99.90;;;;;;5029153;28;20235;-69
2023/09/02 07:29:29;;;;;;;4.03;3.33;;;17.60;99.90;;;;;;5043124;28;20254;-69
2023/09/02 07:31:58;;;;;;;3.70;3.10;;;17.60;99.90;;;;;;5029531;28;20474;-70
2023/09/02 07:34:24;;;;;;;3.17;2.83;;;17.70;99.90;;;;;;5031254;28;20227;-68
2023/09/02 07:36:49;;;;;;;3.23;2.93;;;17.70;99.90;;;;;;5027247;28;20492;-68
2023/09/02 07:39:16;;;;;;;3.17;2.87;;;17.80;99.90;;;;;;5027945;28;20228;-68
2023/09/02 07:41:42;;;;;;;3.53;3.23;;;17.90;99.90;;;;;;5011698;28;20332;-69
2023/09/02 07:44:11;;;;;;;4.13;3.73;;;17.90;99.90;;;;;;5045192;28;20463;-68
2023/09/02 07:46:37;;;;;;;4.10;2.90;;;17.90;99.90;;;;;;5030394;28;20474;-68
2023/09/02 07:49:02;;;;;;;5.73;3.63;;;18.00;99.90;;;;;;5027434;28;21132;-69
2023/09/02 07:51:28;;;;;;;4.50;3.60;;;18.00;99.90;;;;;;5060098;28;20208;-68
2023/09/02 07:53:54;;;;;;;5.27;3.53;;;18.10;99.90;;;;;;5029980;28;20860;-68
2023/09/02 07:56:20;;;;;;;3.53;3.23;;;18.20;99.90;;;;;;5043628;28;20222;-68
2023/09/02 07:58:48;;;;;;;4.13;3.23;;;18.20;99.90;;;;;;5025652;28;20595;-68
2023/09/02 08:01:14;;;;;;;5.60;4.30;;;18.20;99.90;;;;;;5026395;28;20327;-68
2023/09/02 08:03:40;;;;;;;3.83;3.43;;;18.20;99.90;;;;;;5045959;28;20462;-69
2023/09/02 08:06:06;;;;;;;3.93;3.40;;;18.20;99.90;;;;;;5030055;28;20496;-68
2023/09/02 08:08:32;;;;;;;3.60;3.30;;;18.20;99.90;;;;;;5047387;28;20216;-68
2023/09/02 08:11:05;;;;;;;6.10;3.20;;;18.20;99.90;;;;;;5062874;28;20993;-68
2023/09/02 08:13:31;;;;;;;3.30;3.00;;;18.30;99.90;;;;;;5065538;28;20228;-68
2023/09/02 08:15:58;;;;;;;3.57;3.20;;;18.30;99.90;;;;;;5016052;28;20478;-69
2023/09/02 08:18:24;;;;;;;4.77;3.23;;;18.30;99.90;;;;;;5015803;28;20474;-69
2023/09/02 08:20:49;;;;;;;2.93;2.63;;;18.30;99.90;;;;;;5049931;28;20474;-68
2023/09/02 08:23:15;;;;;;;4.80;4.30;;;18.40;99.90;;;;;;5034188;28;20232;-69
2023/09/02 08:25:41;;;;;;;3.80;3.50;;;18.40;99.90;;;;;;5015966;28;20231;-68
2023/09/02 08:28:06;;;;;;;3.50;3.20;;;18.50;99.90;;;;;;5058802;28;20796;-69
2023/09/02 08:30:32;;;;;;;4.00;3.53;;;18.50;99.90;;;;;;5033769;28;20230;-68
2023/09/02 08:32:58;;;;;;;3.63;3.10;;;18.60;99.90;;;;;;5016055;28;20657;-69
2023/09/02 08:35:23;;;;;;;3.10;2.90;;;18.70;99.90;;;;;;5016415;28;20227;-68
2023/09/02 08:37:51;;;;;;;3.37;3.17;;;18.80;99.90;;;;;;5016706;28;20339;-69
2023/09/02 08:40:17;;;;;;;4.00;3.70;;;18.80;99.90;;;;;;5046341;28;20334;-69
2023/09/02 08:42:44;;;;;;;3.50;3.20;;;18.80;99.90;;;;;;5046882;28;20470;-69
2023/09/02 08:45:11;;;;;;;7.23;3.70;;;18.90;99.90;;;;;;5021882;28;20704;-68
2023/09/02 08:47:43;;;;;;;4.27;3.87;;;19.00;99.90;;;;;;5063179;28;20921;-69
2023/09/02 08:50:10;;;;;;;4.03;3.63;;;19.10;99.90;;;;;;5046721;28;20898;-69
2023/09/02 08:52:37;;;;;;;4.70;4.17;;;19.20;99.90;;;;;;5033140;28;20462;-68
2023/09/02 08:55:03;;;;;;;5.00;4.50;;;19.20;99.90;;;;;;5046278;28;20470;-69
2023/09/02 08:57:29;;;;;;;4.27;3.87;;;19.20;99.90;;;;;;5016213;28;20470;-69
2023/09/02 08:59:55;;;;;;;4.20;3.90;;;19.20;99.90;;;;;;5046340;28;20592;-69
2023/09/02 09:02:21;;;;;;;4.20;3.80;;;19.30;99.90;;;;;;5027872;28;20732;-69
2023/09/02 09:04:48;;;;;;;4.07;3.63;;;19.30;99.90;;;;;;5031458;28;20914;-70
2023/09/02 09:07:17;;;;;;;4.50;4.10;;;19.30;99.90;;;;;;5028024;28;20564;-70
2023/09/02 09:09:43;;;;;;;5.57;4.57;;;19.40;99.90;;;;;;5040700;28;20519;-70
2023/09/02 09:12:11;;;;;;;4.77;4.27;;;19.50;99.90;;;;;;5030850;28;20466;-71
2023/09/02 09:14:39;;;;;;;4.20;3.67;;;19.60;99.90;;;;;;5022545;28;20569;-71
2023/09/02 09:17:06;;;;;;;5.50;4.70;;;19.70;99.90;;;;;;5044119;28;20466;-73
2023/09/02 09:19:33;;;;;;;5.13;4.40;;;19.80;99.90;;;;;;5060556;28;20589;-71
2023/09/02 09:22:01;;;;;;;6.17;5.20;;;19.90;99.90;;;;;;5026899;28;20542;-71
2023/09/02 09:24:28;;;;;;;6.03;5.43;;;20.00;99.90;;;;;;5029500;28;20474;-71
2023/09/02 09:26:58;;;;;;;5.60;5.10;;;20.10;99.90;;;;;;5027677;28;20478;-70
2023/09/02 09:29:23;;;;;;;5.03;4.60;;;20.20;99.90;;;;;;5043672;28;20458;-71
2023/09/02 09:32:06;;;;;;;5.50;5.00;;;20.20;99.90;;;;;;5029043;28;20454;-71
2023/09/02 09:34:39;;;;;;;7.30;5.13;;;20.20;99.90;;;;;;5029366;28;20219;-71
2023/09/02 09:37:06;;;;;;;6.23;5.03;;;20.30;99.90;;;;;;5040075;28;20450;-71
2023/09/02 09:39:46;;;;;;;6.33;4.83;;;20.40;99.90;;;;;;5030035;28;20552;-71
2023/09/02 09:42:17;;;;;;;4.73;4.33;;;20.30;99.90;;;;;;5030717;28;20453;-71
2023/09/02 09:44:57;;;;;;;4.47;4.07;;;20.40;99.90;;;;;;5041283;28;20581;-71
2023/09/02 09:47:24;;;;;;;4.27;3.87;;;20.50;99.90;;;;;;5029691;28;20504;-71
2023/09/02 09:49:50;;;;;;;4.00;3.70;;;20.60;99.90;;;;;;5029641;28;20474;-70
2023/09/02 09:52:19;;;;;;;4.20;3.80;;;20.70;99.90;;;;;;5029561;28;20599;-71
2023/09/02 09:54:51;;;;;;;4.47;4.07;;;20.70;99.90;;;;;;5057954;28;20348;-71
2023/09/02 09:57:29;;;;;;;3.97;3.57;;;20.70;99.90;;;;;;5028617;28;20478;-71
2023/09/02 09:59:55;;;;;;;4.10;3.70;;;20.80;99.90;;;;;;5025811;28;20571;-71
2023/09/02 10:02:22;;;;;;;5.63;3.77;;;21.00;99.90;;;;;;5058795;28;20494;-71
2023/09/02 10:04:55;;;;;;;3.67;3.43;;;21.20;99.90;;;;;;5026896;28;20605;-71
2023/09/02 10:07:26;;;;;;;4.43;4.10;;;21.30;99.90;;;;;;5026705;28;20466;-71
2023/09/02 10:09:56;;;;;;;3.30;3.00;;;21.40;99.90;;;;;;5045267;28;20489;-71
2023/09/02 10:12:22;;;;;;;4.43;3.47;;;21.50;99.90;;;;;;5026256;28;20461;-71
2023/09/02 10:14:49;;;;;;;3.80;3.07;;;21.70;99.90;;;;;;5009397;28;20524;-71
2023/09/02 10:17:16;;;;;;;2.63;2.50;;;21.70;99.90;;;;;;5044221;28;20602;-71
2023/09/02 10:19:43;;;;;;;3.70;3.40;;;21.80;99.90;;;;;;5022840;28;20842;-71
2023/09/02 10:22:14;;;;;;;3.67;3.37;;;22.00;99.90;;;;;;5024582;28;20462;-71
2023/09/02 10:25:04;;;;;;;4.00;3.60;;;22.00;99.90;;;;;;5040529;28;20470;-71
2023/09/02 10:27:36;;;;;;;3.83;3.53;;;22.10;99.90;;;;;;5012201;28;20670;-71
2023/09/02 10:30:02;;;;;;;4.93;3.47;;;22.20;99.90;;;;;;5025757;28;20478;-71
2023/09/02 10:32:41;;;;;;;3.40;3.20;;;22.20;99.90;;;;;;5054793;28;20473;-71
2023/09/02 10:35:24;;;;;;;3.20;3.00;;;22.50;99.90;;;;;;5026222;28;20481;-71
2023/09/02 10:37:58;;;;;;;3.60;3.30;;;22.70;99.90;;;;;;5044955;28;20466;-72
2023/09/02 10:40:31;;;;;;;4.30;4.00;;;22.80;99.90;;;;;;5026869;28;20473;-71
2023/09/02 10:42:58;;;;;;;3.90;3.60;;;22.80;99.90;;;;;;5027518;28;20637;-71
2023/09/02 10:45:25;;;;;;;3.80;3.50;;;22.80;99.90;;;;;;5009631;28;20476;-71
2023/09/02 10:47:51;;;;;;;4.23;3.83;;;22.70;99.90;;;;;;5007145;28;20670;-72
2023/09/02 10:50:20;;;;;;;3.77;3.43;;;23.00;99.90;;;;;;5024635;28;20474;-71
2023/09/02 10:52:45;;;;;;;3.73;3.40;;;23.30;99.90;;;;;;5056038;28;20469;-72
2023/09/02 10:55:11;;;;;;;4.10;3.80;;;23.30;99.90;;;;;;5039408;28;20941;-72
2023/09/02 10:57:50;;;;;;;6.17;4.10;;;23.20;99.90;;;;;;5041262;28;20236;-72
2023/09/02 11:00:16;;;;;;;3.50;3.30;;;23.30;99.90;;;;;;5009414;28;20542;-72
2023/09/02 11:02:44;;;;;;;4.00;3.70;;;23.50;99.90;;;;;;5025573;28;20507;-72
2023/09/02 11:05:10;;;;;;;4.00;3.70;;;23.50;99.90;;;;;;5040623;28;20550;-72
2023/09/02 11:07:39;;;;;;;3.50;3.30;;;23.50;99.90;;;;;;5026452;28;20530;-72
2023/09/02 11:10:06;;;;;;;3.27;2.97;;;23.70;99.90;;;;;;5052199;28;20469;-72
2023/09/02 11:12:33;;;;;;;3.50;3.10;;;23.60;99.90;;;;;;5026337;28;20489;-72
2023/09/02 11:15:07;;;;;;;6.90;3.27;;;23.60;99.90;;;;;;5010666;28;20946;-72
2023/09/02 11:17:34;;;;;;;4.83;3.23;;;23.60;99.90;;;;;;5010780;28;20497;-72
2023/09/02 11:20:08;;;;;;;2.50;2.40;;;23.80;99.90;;;;;;5040506;28;20584;-71
2023/09/02 11:22:56;;;;;;;2.20;2.10;;;23.90;99.90;;;;;;5026131;28;20524;-72
2023/09/02 11:25:41;;;;;;;3.80;3.50;;;24.00;99.90;;;;;;5038654;28;20473;-72
2023/09/02 11:28:12;;;;;;;2.80;2.60;;;24.00;99.90;;;;;;5044416;28;20473;-72
2023/09/02 11:30:39;;;;;;;3.07;2.87;;;24.10;99.90;;;;;;5044395;28;20466;-72
2023/09/02 11:33:09;;;;;;;2.77;2.57;;;24.20;99.90;;;;;;5039378;28;20507;-72
2023/09/02 11:35:37;;;;;;;2.70;2.50;;;24.30;99.90;;;;;;5041717;28;20466;-72
2023/09/02 11:38:05;;;;;;;3.37;3.07;;;24.30;99.90;;;;;;5026375;28;20903;-72
2023/09/02 11:40:31;;;;;;;2.97;2.77;;;24.40;99.90;;;;;;5027184;28;20951;-72
2023/09/02 11:42:59;;;;;;;2.90;2.60;;;24.60;99.90;;;;;;5013134;28;20498;-72
2023/09/02 11:45:27;;;;;;;3.87;2.73;;;24.80;99.90;;;;;;5030041;28;20251;-72
2023/09/02 11:47:53;;;;;;;2.63;2.47;;;24.90;99.90;;;;;;5046863;28;20477;-72
2023/09/02 11:50:20;;;;;;;2.30;2.20;;;24.60;99.90;;;;;;5045298;28;20555;-72
2023/09/02 11:52:47;;;;;;;2.00;1.90;;;24.40;99.90;;;;;;5030631;28;20335;-72
2023/09/02 11:55:17;;;;;;;2.50;2.40;;;24.50;99.90;;;;;;5044916;28;20458;-72
2023/09/02 11:57:46;;;;;;;4.07;2.70;;;24.50;99.90;;;;;;5060414;28;20470;-72
2023/09/02 12:00:23;;;;;;;2.37;2.27;;;24.40;99.90;;;;;;5040764;28;20493;-72
2023/09/02 12:02:50;;;;;;;2.80;2.60;;;24.70;99.90;;;;;;5045987;28;20493;-72
2023/09/02 12:05:16;;;;;;;2.60;2.50;;;24.60;99.90;;;;;;5029824;28;20476;-72
2023/09/02 12:07:44;;;;;;;2.50;2.37;;;24.50;99.90;;;;;;5046166;28;20477;-72
2023/09/02 12:10:15;;;;;;;2.50;2.30;;;24.80;99.90;;;;;;5028500;28;20584;-72
2023/09/02 12:12:47;;;;;;;2.20;2.10;;;24.90;99.90;;;;;;5027035;28;20549;-72
2023/09/02 12:15:15;;;;;;;5.10;2.40;;;25.00;99.90;;;;;;5029039;28;20578;-73
2023/09/02 12:17:42;;;;;;;3.00;2.80;;;25.20;99.90;;;;;;5043419;28;20857;-72
2023/09/02 12:20:11;;;;;;;2.80;2.60;;;25.50;99.90;;;;;;5012751;28;20485;-74
2023/09/02 12:22:37;;;;;;;3.33;2.97;;;25.30;99.90;;;;;;5046163;28;20485;-72
2023/09/02 12:25:21;;;;;;;2.73;2.53;;;25.10;99.90;;;;;;5012864;28;20461;-72
2023/09/02 12:27:47;;;;;;;2.00;1.90;;;25.10;99.90;;;;;;5045074;28;20473;-72
2023/09/02 12:30:24;;;;;;;2.80;2.60;;;25.50;99.90;;;;;;5031494;28;20470;-73
2023/09/02 12:32:49;;;;;;;2.33;2.13;;;25.90;99.90;;;;;;5032802;28;20465;-72
2023/09/02 12:35:15;;;;;;;3.43;3.10;;;26.00;99.90;;;;;;5030600;28;20921;-73
2023/09/02 12:37:41;;;;;;;2.30;2.20;;;25.70;99.90;;;;;;5027229;28;20227;-73
2023/09/02 12:40:14;;;;;;;2.93;2.10;;;25.60;99.90;;;;;;5032016;28;20261;-72
2023/09/02 12:42:41;;;;;;;2.30;2.00;;;25.90;99.90;;;;;;5025616;28;20215;-73
2023/09/02 12:45:08;;;;;;;1.90;1.80;;;26.20;99.90;;;;;;5032028;28;20459;-72
2023/09/02 12:47:36;;;;;;;2.00;1.90;;;26.30;99.90;;;;;;5045094;28;20477;-72
2023/09/02 12:50:02;;;;;;;2.10;2.00;;;26.10;99.90;;;;;;5031326;28;20473;-73
2023/09/02 12:52:30;;;;;;;2.27;2.10;;;26.00;99.90;;;;;;5045027;28;20527;-73